createdAt,value
2023-05-13T00:02:11.563Z,109.22
2023-05-13T00:04:41.216Z,117.75
2023-05-13T00:07:10.803Z,116.20
2023-05-13T00:09:40.555Z,98.80
2023-05-13T00:12:10.289Z,120.63
2023-05-13T00:14:39.885Z,122.45
2023-05-13T00:17:09.513Z,114.85
2023-05-13T00:19:39.246Z,119.10
2023-05-13T00:22:11.819Z,102.13
2023-05-13T00:24:41.475Z,107.90
2023-05-13T00:27:12.835Z,116.82
2023-05-13T00:29:42.424Z,106.90
2023-05-13T00:32:12.909Z,123.18
2023-05-13T00:34:42.548Z,137.82
2023-05-13T00:37:12.816Z,129.10
2023-05-13T00:39:43.360Z,123.00
2023-05-13T00:42:13.923Z,124.75
2023-05-13T00:44:43.920Z,108.85
2023-05-13T00:47:13.984Z,111.28
2023-05-13T00:52:12.646Z,121.53
2023-05-13T00:54:45.423Z,125.45
2023-05-13T00:57:15.007Z,111.97
2023-05-13T00:59:44.920Z,115.20
2023-05-13T01:02:32.905Z,110.47
2023-05-13T01:05:14.939Z,104.55
2023-05-13T01:07:52.714Z,106.88
2023-05-13T01:10:28.427Z,101.65
2023-05-13T01:13:01.762Z,99.95
2023-05-13T01:15:31.892Z,113.85
2023-05-13T01:18:18.280Z,105.43
2023-05-13T01:20:48.739Z,106.07
2023-05-13T01:23:18.408Z,111.03
2023-05-13T01:25:48.317Z,117.90
2023-05-13T01:28:18.039Z,102.43
2023-05-13T01:30:47.990Z,107.00
2023-05-13T01:35:48.501Z,117.13
2023-05-13T01:38:18.332Z,138.43
2023-05-13T01:40:48.090Z,129.88
2023-05-13T01:43:17.873Z,125.00
2023-05-13T01:45:47.732Z,128.85
2023-05-13T01:50:46.604Z,135.52
2023-05-13T01:55:45.305Z,155.50
2023-05-13T01:58:15.003Z,140.30
2023-05-13T02:00:44.663Z,119.15
2023-05-13T02:03:14.591Z,127.70
2023-05-13T02:05:44.267Z,125.03
2023-05-13T02:08:14.007Z,117.07
2023-05-13T02:10:44.022Z,119.28
2023-05-13T02:13:14.182Z,114.53
2023-05-13T02:15:43.777Z,132.65
2023-05-13T02:18:13.404Z,134.15
2023-05-13T02:20:43.139Z,124.30
2023-05-13T02:23:12.769Z,109.47
2023-05-13T02:25:42.759Z,131.35
2023-05-13T02:28:12.375Z,121.85
2023-05-13T02:30:41.943Z,129.82
2023-05-13T02:33:11.674Z,130.88
2023-05-13T02:38:12.481Z,120.23
2023-05-13T02:40:42.170Z,136.20
2023-05-13T02:45:43.337Z,123.32
2023-05-13T02:48:12.959Z,123.75
2023-05-13T03:21:20.791Z,131.90
2023-05-13T03:23:50.383Z,105.82
2023-05-13T03:26:19.990Z,124.55
2023-05-13T03:28:49.742Z,116.32
2023-05-13T03:33:48.377Z,114.28
2023-05-13T03:36:18.150Z,104.03
2023-05-13T03:38:47.743Z,93.88
2023-05-13T03:43:48.822Z,105.53
2023-05-13T03:46:18.610Z,110.22
2023-05-13T03:48:48.332Z,101.45
2023-05-13T03:53:48.762Z,103.35
2023-05-13T03:56:18.483Z,101.55
2023-05-13T04:01:17.179Z,107.53
2023-05-13T04:06:17.537Z,105.47
2023-05-13T04:11:32.897Z,111.35
2023-05-13T04:14:02.919Z,96.72
2023-05-13T04:16:33.083Z,90.57
2023-05-13T04:19:02.912Z,84.25
2023-05-13T04:21:33.190Z,93.85
2023-05-13T04:24:02.998Z,82.70
2023-05-13T04:26:32.548Z,79.72
2023-05-13T04:29:02.244Z,83.93
2023-05-13T04:34:01.175Z,83.15
2023-05-13T04:36:30.775Z,89.45
2023-05-13T04:41:29.339Z,81.03
2023-05-13T04:46:28.089Z,76.68
2023-05-13T04:49:09.812Z,68.28
2023-05-13T04:51:39.854Z,68.53
2023-05-13T05:08:30.364Z,73.47
2023-05-13T05:10:59.945Z,69.47
2023-05-13T05:15:58.623Z,70.55
2023-05-13T05:18:28.314Z,61.63
2023-05-13T05:20:59.224Z,71.13
2023-05-13T05:23:29.990Z,68.78
2023-05-13T05:26:11.123Z,72.20
2023-05-13T05:28:41.881Z,65.30
2023-05-13T05:33:41.039Z,77.63
2023-05-13T05:36:11.153Z,70.10
2023-05-13T05:38:40.799Z,76.82
2023-05-13T05:43:39.592Z,84.78
2023-05-13T05:46:09.476Z,79.63
2023-05-13T05:48:39.311Z,75.55
2023-05-13T05:51:08.956Z,77.32
2023-05-13T10:53:01.755Z,76.22
2023-05-13T10:55:31.550Z,87.00
2023-05-13T10:58:11.697Z,80.22
2023-05-13T11:00:42.608Z,79.07
2023-05-13T11:03:17.047Z,76.57
2023-05-13T11:05:48.749Z,85.90
2023-05-13T11:08:48.031Z,90.63
2023-05-13T11:11:27.909Z,79.22
2023-05-13T11:14:12.620Z,79.13
2023-05-13T11:16:48.077Z,82.68
2023-05-13T11:19:29.862Z,85.30
2023-05-13T11:22:00.475Z,71.18
2023-05-13T11:24:30.212Z,81.65
2023-05-13T11:27:01.159Z,70.97
2023-05-13T11:29:31.873Z,75.05
2023-05-13T11:32:01.936Z,76.05
2023-05-13T11:34:32.550Z,85.72
2023-05-13T11:37:09.546Z,71.65
2023-05-13T11:39:42.622Z,79.13
2023-05-13T11:42:13.147Z,74.55
2023-05-13T11:44:49.947Z,72.38
2023-05-13T11:47:29.682Z,72.97
2023-05-13T11:50:00.665Z,85.00
2023-05-13T11:52:30.972Z,76.65
2023-05-13T11:55:00.865Z,64.38
2023-05-13T11:57:34.001Z,71.65
2023-05-13T12:00:08.434Z,68.63
2023-05-13T12:02:39.293Z,81.90
2023-05-13T12:05:13.310Z,63.10
2023-05-13T12:07:42.888Z,71.38
2023-05-13T12:12:42.680Z,78.60
2023-05-13T12:15:22.850Z,79.68
2023-05-13T12:17:52.958Z,71.75
2023-05-13T12:20:23.666Z,67.97
2023-05-13T12:22:54.673Z,74.07
2023-05-13T12:25:33.507Z,74.13
2023-05-13T12:28:08.788Z,73.40
2023-05-13T12:30:42.466Z,90.95
2023-05-13T12:33:19.261Z,102.30
2023-05-13T12:35:50.216Z,107.75
2023-05-13T12:38:23.740Z,96.95
2023-05-13T12:40:54.820Z,76.15
2023-05-13T12:43:24.485Z,87.47
2023-05-13T12:48:26.703Z,86.05
2023-05-13T12:50:59.096Z,92.15
2023-05-13T12:53:29.912Z,81.72
2023-05-13T12:55:59.661Z,86.93
2023-05-13T13:00:58.728Z,80.72
2023-05-13T13:03:28.420Z,76.72
2023-05-13T13:08:30.801Z,86.82
2023-05-13T13:11:03.072Z,85.93
2023-05-13T13:13:33.062Z,85.00
2023-05-13T13:16:03.665Z,86.63
2023-05-13T13:18:33.458Z,95.97
2023-05-13T13:23:32.299Z,96.13
2023-05-13T13:26:02.118Z,98.85
2023-05-13T13:31:01.566Z,75.75
2023-05-13T13:33:31.278Z,86.57
2023-05-13T13:38:30.130Z,76.55
2023-05-13T13:43:29.829Z,83.13
2023-05-13T13:45:59.459Z,84.57
2023-05-13T13:48:29.146Z,91.68
2023-05-13T13:51:00.110Z,91.78
2023-05-13T13:53:29.813Z,99.38
2023-05-13T13:55:59.528Z,81.35
2023-05-13T13:58:29.294Z,85.32
2023-05-13T14:03:31.016Z,91.20
2023-05-13T14:06:00.747Z,96.63
2023-05-13T14:08:30.347Z,84.65
2023-05-13T14:11:00.595Z,79.05
2023-05-13T14:13:30.764Z,87.63
2023-05-13T14:16:00.607Z,92.35
2023-05-13T14:18:30.496Z,88.53
2023-05-13T14:23:29.277Z,83.37
2023-05-13T14:28:28.133Z,78.10
2023-05-13T14:33:27.065Z,80.87
2023-05-13T14:35:56.804Z,89.47
2023-05-13T14:38:26.671Z,88.90
2023-05-13T14:43:27.484Z,89.43
2023-05-13T14:45:57.191Z,95.32
2023-05-13T14:48:26.848Z,86.13
2023-05-13T14:50:56.531Z,88.22
2023-05-13T14:53:26.414Z,91.70
2023-05-13T14:55:56.317Z,87.57
2023-05-13T14:58:26.371Z,97.40
2023-05-13T15:00:56.206Z,96.03
2023-05-13T15:05:55.924Z,90.50
2023-05-13T15:08:25.535Z,86.22
2023-05-13T15:10:55.259Z,85.10
2023-05-13T15:15:56.290Z,102.40
2023-05-13T15:18:26.038Z,102.85
2023-05-13T15:20:55.697Z,84.57
2023-05-13T15:23:30.435Z,89.40
2023-05-13T15:26:00.072Z,97.90
2023-05-13T15:28:30.679Z,98.10
2023-05-13T15:31:00.321Z,90.75
2023-05-13T15:33:30.915Z,90.88
2023-05-13T15:36:00.574Z,98.00
2023-05-13T15:38:30.339Z,98.53
2023-05-13T15:41:00.285Z,115.32
2023-05-13T15:43:32.279Z,106.38
2023-05-13T15:46:02.348Z,104.65
2023-05-13T15:48:32.687Z,101.78
2023-05-13T15:51:02.554Z,104.05
2023-05-13T15:56:01.243Z,105.13
2023-05-13T15:58:32.886Z,107.68
2023-05-13T16:01:02.559Z,101.85
2023-05-13T16:03:32.256Z,96.43
2023-05-13T16:06:02.152Z,98.40
2023-05-13T16:08:32.206Z,104.72
2023-05-13T16:13:30.982Z,88.25
2023-05-13T16:16:00.852Z,91.28
2023-05-13T16:20:59.540Z,83.83
2023-05-13T16:23:29.264Z,93.82
2023-05-13T16:25:59.181Z,89.35
2023-05-13T16:30:58.722Z,80.05
2023-05-13T16:33:28.567Z,97.93
2023-05-13T16:35:58.184Z,90.07
2023-05-13T16:38:27.903Z,100.18
2023-05-13T16:40:57.604Z,97.75
2023-05-13T16:43:27.309Z,91.75
2023-05-13T16:45:57.000Z,90.45
2023-05-13T16:48:26.794Z,101.47
2023-05-13T16:50:57.525Z,92.03
2023-05-13T16:53:27.960Z,126.63
2023-05-13T16:55:57.630Z,99.05
2023-05-13T16:58:32.518Z,92.22
2023-05-13T17:01:02.564Z,90.70
2023-05-13T17:03:32.280Z,93.93
2023-05-13T17:06:02.008Z,99.43
2023-05-13T17:08:31.630Z,103.93
2023-05-13T17:11:02.155Z,87.07
2023-05-13T17:13:31.931Z,94.53
2023-05-13T17:16:01.639Z,92.55
2023-05-13T17:18:31.276Z,85.03
2023-05-13T17:21:05.236Z,93.72
2023-05-13T17:23:35.115Z,89.55
2023-05-13T17:26:05.174Z,93.80
2023-05-13T17:28:39.890Z,90.82
2023-05-13T17:31:10.357Z,78.30
2023-05-13T17:33:40.224Z,89.20
2023-05-13T17:36:10.055Z,83.07
2023-05-13T17:38:39.788Z,95.90
2023-05-13T17:41:09.928Z,84.97
2023-05-13T17:43:39.510Z,78.60
2023-05-13T17:46:09.486Z,93.15
2023-05-13T17:51:08.292Z,81.30
2023-05-13T17:53:37.897Z,79.00
2023-05-13T17:56:09.864Z,87.22
2023-05-13T17:58:39.704Z,86.10
2023-05-13T18:01:09.517Z,83.50
2023-05-13T18:03:39.132Z,93.22
2023-05-13T18:06:08.941Z,87.45
2023-05-13T18:08:38.627Z,86.38
2023-05-13T18:11:08.352Z,89.30
2023-05-13T18:13:38.149Z,86.85
2023-05-13T18:16:08.025Z,83.40
2023-05-13T18:21:06.927Z,86.13
2023-05-13T18:23:36.628Z,81.90
2023-05-13T18:26:06.352Z,84.38
2023-05-13T18:28:46.659Z,83.43
2023-05-13T18:31:16.291Z,77.20
2023-05-13T18:33:46.034Z,87.68
2023-05-13T18:36:15.728Z,84.35
2023-05-13T18:38:47.455Z,81.63
2023-05-13T18:41:17.179Z,81.00
2023-05-13T18:43:47.047Z,90.68
2023-05-13T18:46:16.803Z,84.43
2023-05-13T18:48:46.991Z,83.38
2023-05-13T18:51:17.957Z,95.65
2023-05-13T18:53:48.234Z,81.47
2023-05-13T18:56:18.196Z,93.85
2023-05-13T19:03:47.085Z,84.15
2023-05-13T19:08:46.984Z,84.22
2023-05-13T19:11:16.621Z,98.82
2023-05-13T19:13:47.537Z,101.60
2023-05-13T19:16:18.198Z,104.40
2023-05-13T19:18:48.063Z,103.53
2023-05-13T19:23:55.883Z,116.00
2023-05-13T19:26:25.545Z,115.03
2023-05-13T19:31:24.724Z,98.18
2023-05-13T19:36:25.297Z,107.22
2023-05-13T19:38:55.403Z,105.55
2023-05-13T19:41:25.118Z,116.93
2023-05-13T19:43:54.826Z,120.80
2023-05-13T19:46:24.605Z,120.70
2023-05-13T19:48:54.250Z,105.97
2023-05-13T19:51:36.758Z,102.45
2023-05-13T19:54:09.187Z,112.60
2023-05-13T19:56:39.039Z,108.50
2023-05-13T19:59:09.198Z,107.32
2023-05-13T20:01:39.340Z,100.65
2023-05-13T20:04:09.190Z,103.45
2023-05-13T20:09:28.110Z,121.80
2023-05-13T20:11:59.525Z,101.53
2023-05-13T20:14:47.295Z,100.55
2023-05-13T20:17:20.492Z,95.95
2023-05-13T20:20:12.552Z,101.60
2023-05-13T20:22:45.092Z,97.38
2023-05-13T20:25:15.425Z,106.72
2023-05-13T20:27:45.120Z,100.97
2023-05-13T20:30:15.305Z,108.97
2023-05-13T20:32:50.245Z,104.97
2023-05-13T20:35:21.460Z,94.82
2023-05-13T20:37:51.066Z,104.82
2023-05-13T20:40:21.053Z,105.47
2023-05-13T20:42:50.886Z,107.55
2023-05-13T20:45:20.562Z,107.90
2023-05-13T20:47:51.282Z,101.85
2023-05-13T20:50:21.204Z,98.60
2023-05-13T20:55:22.025Z,101.70
2023-05-13T20:57:53.071Z,97.47
2023-05-13T21:00:23.253Z,110.32
2023-05-13T21:02:54.727Z,99.72
2023-05-13T21:05:24.567Z,101.10
2023-05-13T21:10:24.130Z,117.70
2023-05-13T21:12:53.983Z,105.43
2023-05-13T21:15:23.661Z,110.25
2023-05-13T21:17:53.664Z,109.93
2023-05-13T21:22:52.892Z,94.93
2023-05-13T21:25:22.660Z,106.45
2023-05-13T21:27:52.424Z,103.45
2023-05-13T21:30:22.139Z,105.22
2023-05-13T21:33:04.958Z,111.13
2023-05-13T21:35:34.640Z,113.10
2023-05-13T21:38:11.967Z,101.47
2023-05-13T21:40:42.411Z,109.75
2023-05-13T21:43:12.688Z,99.60
2023-05-13T21:45:42.292Z,108.25
2023-05-13T21:48:12.155Z,92.93
2023-05-13T21:50:41.860Z,94.97
2023-05-13T21:53:11.597Z,97.22
2023-05-13T21:55:41.266Z,105.00
2023-05-13T21:58:10.921Z,105.30
2023-05-13T22:00:40.614Z,91.25
2023-05-13T22:03:10.601Z,91.03
2023-05-13T22:08:15.059Z,100.65
2023-05-13T22:10:44.649Z,94.75
2023-05-13T22:13:14.255Z,101.13
2023-05-13T22:15:44.089Z,91.45
2023-05-13T22:18:14.104Z,100.25
2023-05-13T22:23:12.793Z,115.97
2023-05-13T22:25:42.382Z,111.70
2023-05-13T22:28:12.331Z,118.95
2023-05-13T22:30:41.963Z,105.13
2023-05-13T22:33:11.676Z,122.72
2023-05-13T22:35:41.459Z,102.55
2023-05-13T22:38:11.159Z,97.80
2023-05-13T22:40:40.920Z,115.03
2023-05-13T22:43:10.500Z,102.25
2023-05-13T22:45:40.103Z,108.07
2023-05-13T22:48:09.786Z,117.20
2023-05-13T22:50:39.476Z,105.93
2023-05-13T22:53:09.143Z,108.25
2023-05-13T22:55:38.848Z,115.22
2023-05-13T22:58:08.520Z,103.55
2023-05-13T23:00:38.264Z,110.38
2023-05-13T23:03:07.874Z,108.32
2023-05-13T23:05:38.162Z,116.43
2023-05-13T23:08:07.896Z,109.70
2023-05-13T23:10:38.174Z,116.75
2023-05-13T23:13:07.867Z,116.28
2023-05-13T23:15:39.270Z,109.50
2023-05-13T23:18:09.006Z,111.03
2023-05-13T23:20:38.718Z,112.10
2023-05-13T23:23:08.235Z,113.20
2023-05-13T23:25:37.826Z,130.65
2023-05-13T23:28:07.437Z,120.93
2023-05-13T23:30:38.600Z,112.25
2023-05-13T23:33:08.209Z,107.78
2023-05-13T23:35:37.928Z,122.70
2023-05-13T23:38:07.730Z,108.43
2023-05-13T23:40:37.816Z,109.13
2023-05-13T23:45:36.657Z,108.82
2023-05-13T23:48:06.464Z,104.10
2023-05-13T23:50:36.167Z,111.35
2023-05-13T23:53:08.638Z,108.57
2023-05-13T23:55:38.418Z,116.93
2023-05-13T23:58:07.994Z,109.53
